»·PEaware :: FDX168 KLAS-KONT

FDX168 :: KLAS-KONT

FLIGHT INFORMATION

Flight Status: Arrived
Operator:
Federal Express
More flights by this operator :: More flights under this callsign
Pilot: Sean R. (2202)
Aircraft: Unknown
(B77F)
More flights by this aircraft type
Origin: KLAS McCarran Intl
United States
Destination: KONT Ontario Intl
United States
More flights between these airports :: More routes between these airports
Route: +BOACH5 HEC ZIGGY4
File this flight plan on PilotEdge
Remarks:
Altitude:
(Current/Filed)
24,000ft
Speed:
(Current/Filed)
400kts
Departed: 07-Jan-15 12:38 PM
Arrived: 07-Jan-15 01:19 PM
Distance/Time
Traveled:
172nm/0:40
Distance/Time
To Go:
Arrived

Flight Plot

Page will automatically refresh every two minutes.


Map Options




Map Legend


Flown Route
Filed Route
Departure Airport
Arrival Airport
Navaid (VOR, NDB)
Fix

Horizontal Profiles

Position Reports

Time Latitude Longitude Heading Altitude Ground
Speed
07-Jan-15 12:19 36.081836 -115.126365 180 2198ft 0kts
07-Jan-15 12:20 36.081836 -115.126365 180 2198ft 0kts
07-Jan-15 12:21 36.081836 -115.126365 180 2198ft 0kts
07-Jan-15 12:22 36.081836 -115.126365 180 2198ft 0kts
07-Jan-15 12:23 36.081836 -115.126365 180 2198ft 0kts
07-Jan-15 12:24 36.081836 -115.126365 180 2198ft 0kts
07-Jan-15 12:25 36.081836 -115.126365 180 2198ft 0kts
07-Jan-15 12:26 36.081836 -115.126365 180 2198ft 0kts
07-Jan-15 12:27 36.081836 -115.126365 180 2198ft 0kts
07-Jan-15 12:28 36.081836 -115.126365 180 2198ft 0kts
07-Jan-15 12:29 36.081836 -115.126365 180 2198ft 0kts
07-Jan-15 12:30 36.079980 -115.126401 179 2198ft 24kts
07-Jan-15 12:31 36.077519 -115.130395 270 2198ft 31kts
07-Jan-15 12:32 36.077503 -115.139580 269 2198ft 21kts
07-Jan-15 12:33 36.077568 -115.143477 272 2198ft 0kts
07-Jan-15 12:34 36.077997 -115.150636 273 2198ft 50kts
07-Jan-15 12:35 36.078021 -115.163731 269 2198ft 9kts
07-Jan-15 12:36 36.090399 -115.158092 25 2258ft 178kts
07-Jan-15 12:37 36.141871 -115.171624 293 6878ft 275kts
07-Jan-15 12:38 36.123464 -115.254829 235 11513ft 280kts
07-Jan-15 12:39 36.053173 -115.314439 201 12814ft 394kts
07-Jan-15 12:40 35.957194 -115.361306 199 17308ft 411kts
07-Jan-15 12:41 35.852137 -115.367443 163 19656ft 442kts
07-Jan-15 12:42 35.745710 -115.328617 174 23400ft 457kts
07-Jan-15 12:43 35.634398 -115.357549 207 24392ft 469kts
07-Jan-15 12:44 35.549801 -115.460759 234 24393ft 469kts
07-Jan-15 12:45 35.473526 -115.569327 227 24390ft 470kts
07-Jan-15 12:46 35.403241 -115.663474 227 24389ft 470kts
07-Jan-15 12:47 35.318378 -115.776583 226 24370ft 468kts
07-Jan-15 12:48 35.236544 -115.885096 226 24343ft 459kts
07-Jan-15 12:49 35.154917 -115.993010 226 24330ft 456kts
07-Jan-15 12:50 35.073257 -116.100688 225 23419ft 451kts
07-Jan-15 12:51 35.033869 -116.152990 225 22950ft 448kts
07-Jan-15 12:52 34.951471 -116.261076 227 22002ft 444kts
07-Jan-15 12:53 34.875203 -116.360859 229 20955ft 393kts
07-Jan-15 12:54 34.803245 -116.454821 229 19521ft 384kts
07-Jan-15 12:55 34.730752 -116.544562 228 17563ft 378kts
07-Jan-15 12:56 34.659593 -116.632030 228 15603ft 365kts
07-Jan-15 12:57 34.591148 -116.715897 228 13652ft 355kts
07-Jan-15 12:58 34.524354 -116.797563 228 12793ft 351kts
07-Jan-15 12:59 34.456958 -116.879763 228 12162ft 344kts
07-Jan-15 13:00 34.411525 -116.935077 227 12139ft 352kts
07-Jan-15 13:01 34.343516 -117.017758 226 12078ft 363kts
07-Jan-15 13:02 34.275622 -117.099947 225 12044ft 361kts
07-Jan-15 13:03 34.229562 -117.156059 224 12039ft 360kts
07-Jan-15 13:04 34.167259 -117.231273 224 12023ft 304kts
07-Jan-15 13:05 34.100779 -117.236825 153 10320ft 265kts
07-Jan-15 13:06 34.038846 -117.199859 156 6064ft 254kts
07-Jan-15 13:07 33.999843 -117.241414 292 6077ft 246kts
07-Jan-15 13:08 34.021702 -117.303756 293 5399ft 170kts
07-Jan-15 13:09 34.040037 -117.356047 293 4049ft 166kts
07-Jan-15 13:10 34.056076 -117.403067 280 3715ft 152kts
07-Jan-15 13:11 34.057107 -117.451897 268 3059ft 146kts
07-Jan-15 13:12 34.057155 -117.501346 271 2287ft 152kts
07-Jan-15 13:13 34.056902 -117.549643 269 1517ft 140kts
07-Jan-15 13:14 34.056874 -117.591411 270 960ft 76kts
07-Jan-15 13:15 34.056910 -117.599443 266 960ft 4kts
07-Jan-15 13:16 34.054422 -117.601834 225 960ft 11kts
07-Jan-15 13:17 34.053850 -117.608587 268 960ft 46kts
07-Jan-15 13:18 34.052982 -117.614529 176 960ft 0kts
07-Jan-15 13:19 34.052982 -117.614529 176 960ft 0kts
07-Jan-15 13:20 34.052982 -117.614529 176 960ft 0kts

Navigation Log

Ident Type
Flight plan parsing failed, navigation log unavailable